Date,TemperatureHighF,TemperatureAvgF,TemperatureLowF,DewpointHighF,DewpointAvgF,DewpointLowF,HumidityHigh,HumidityAvg,HumidityLow,PressureMaxIn,PressureMinIn,WindSpeedMaxMPH,WindSpeedAvgMPH,GustSpeedMaxMPH,PrecipitationSumIn
2013-1-1,32.1,26.8,24.7,19.0,13.5,12.3,60,57,54,29.63,29.55,4,3,13,0.00
2013-1-2,26.6,16.9,9.5,13.8,8.7,5.1,83,70,58,29.84,29.70,3,2,9,0.00
2013-1-3,20.7,9.9,2.5,12.3,-0.2,-5.9,75,64,42,29.91,29.78,2,0,7,0.00
2013-1-4,33.6,27.1,17.9,23.4,19.4,11.5,88,73,64,29.78,29.62,5,2,6,0.00
2013-1-5,38.1,32.4,24.8,24.1,20.6,16.5,73,62,50,30.02,29.78,4,2,7,0.01
2013-1-6,38.0,30.6,25.0,28.7,25.5,22.3,91,82,68,29.85,29.71,3,1,6,0.04
2013-1-7,36.6,28.9,20.1,28.4,23.1,14.6,90,79,62,30.15,29.75,3,1,5,0.01
2013-1-8,43.0,36.6,26.6,29.7,28.3,23.3,88,72,57,30.14,30.06,5,2,7,0.03
2013-1-9,38.9,34.0,22.2,33.5,28.3,20.5,94,80,68,30.14,29.83,2,1,2,0.00
2013-1-10,41.5,34.9,27.0,28.6,24.2,21.9,81,65,52,30.29,29.88,5,1,8,0.00
2013-1-11,35.5,30.5,23.4,33.6,26.2,20.4,94,84,72,30.27,29.98,1,0,3,0.21
2013-1-12,40.9,37.4,35.3,40.1,36.4,34.3,97,96,96,29.95,29.90,1,0,2,0.06
2013-1-13,48.3,44.2,37.4,47.5,43.3,36.6,97,96,94,29.92,29.78,2,1,3,0.01
2013-1-14,50.5,44.9,38.2,49.0,37.8,28.8,97,77,59,29.99,29.65,3,1,6,0.01
2013-1-15,36.9,34.0,30.3,27.7,26.1,24.8,83,73,64,30.08,29.98,2,0,3,0.01
2013-1-16,32.0,30.9,28.3,30.6,28.6,24.8,96,91,76,30.00,29.57,2,0,4,0.00
2013-1-17,38.2,32.1,26.5,31.2,26.2,17.0,95,79,60,29.85,29.61,4,1,7,0.05
2013-1-18,26.2,19.7,16.2,15.8,4.0,-3.2,65,50,36,30.21,29.81,4,1,8,0.00
2013-1-19,41.6,33.1,17.6,30.9,22.8,7.1,84,66,54,30.13,29.68,5,2,9,0.00
2013-1-20,48.1,38.9,27.1,30.8,25.2,11.9,80,59,38,29.68,29.36,7,3,12,0.00
2013-1-21,24.7,21.8,16.8,19.0,12.9,8.2,89,69,52,29.85,29.62,2,0,3,0.00
2013-1-22,19.4,15.3,9.8,11.5,0.4,-5.2,80,52,37,29.85,29.58,5,2,8,0.00
2013-1-23,13.0,8.4,4.4,-1.6,-5.1,-9.4,71,54,44,29.92,29.84,4,2,11,0.00
2013-1-24,11.3,5.5,0.6,-6.5,-7.6,-8.6,67,55,42,29.98,29.87,4,2,6,0.00
2013-1-25,19.7,14.5,6.5,11.0,-2.3,-6.3,83,48,35,30.09,29.82,3,1,9,0.00
2013-1-26,21.1,14.6,8.5,7.6,4.5,0.0,87,66,43,29.99,29.76,3,1,8,0.00
2013-1-27,27.6,17.9,8.6,6.0,3.0,0.9,77,54,32,30.23,30.05,3,1,6,0.00
2013-1-28,27.1,25.0,19.5,25.6,15.5,3.9,94,70,38,30.17,29.76,2,0,3,0.00
2013-1-29,34.2,30.7,26.1,30.9,28.6,24.6,94,92,86,29.94,29.84,2,0,4,0.13
2013-1-30,55.6,51.5,39.7,54.8,50.7,38.7,98,97,96,29.74,29.35,5,3,7,0.04
2013-1-31,58.6,36.8,28.7,57.2,24.8,13.4,95,62,46,29.36,28.85,8,5,14,0.93